Latest Weather Observations for Mount Wellington

IDT60801

Issued at 2:05 am EDT Friday 31 October 2014 (issued every 30 minutes, with the page automatically refreshed every 10 minutes)

About weather observations | Map of weather stations | Latest weather observations for TAS | Other Formats
Station Details ID: 094087 Name: MOUNT WELLINGTON Lat: -42.90 Lon: 147.24 Height: 1260.47 m
Data from the previous 72 hours. | See also: Recent months at Mount Wellington
Date/Time
EDT
Temp
°C
App
Temp
°C
Dew
Point
Rel
Hum
%
Delta-T
°C
Wind Press
QNH
hPa
Press
MSL
hPa
Rain
since 9 am
mm
Dir
 
Spd
km/h
Gust
km/h
Spd
kts
Gust
kts
31/02:00am 3.5 -5.4 3.2 98 0.1 WNW 39 48 21 26 - - 1.8
31/01:30am 3.5 -4.6 3.2 98 0.1 WNW 35 43 19 23 - - 1.6
31/01:00am 3.4 -5.1 3.1 98 0.1 WNW 37 46 20 25 - - 1.6
31/12:30am 3.3 -4.8 3.0 98 0.1 WNW 35 46 19 25 - - 1.4
31/12:00am 3.2 -6.1 2.9 98 0.1 WNW 41 50 22 27 - - 1.4
 
Date/Time
EDT
Temp
°C
App
Temp
°C
Dew
Point
Rel
Hum
%
Delta-T
°C
Wind Press
QNH
hPa
Press
MSL
hPa
Rain
since 9 am
mm
Dir
 
Spd
km/h
Gust
km/h
Spd
kts
Gust
kts
30/11:30pm 3.1 -6.2 2.8 98 0.1 WNW 41 54 22 29 - - 1.4
30/11:00pm 2.9 -6.1 2.6 98 0.1 WNW 39 56 21 30 - - 1.4
30/10:59pm 2.9 -5.7 2.6 98 0.1 WNW 37 56 20 30 - - 1.4
30/10:30pm 3.0 -5.6 2.7 98 0.1 W 37 50 20 27 - - 1.4
30/10:00pm 2.9 -6.1 2.5 97 0.2 W 39 48 21 26 - - 1.4
30/09:30pm 2.8 -7.0 2.2 96 0.3 W 43 54 23 29 - - 1.4
30/09:00pm 2.8 -7.3 1.5 91 0.5 W 44 61 24 33 - - 1.4
30/08:30pm 2.6 -7.3 1.4 92 0.5 W 43 57 23 31 - - 1.4
30/08:20pm 2.8 -6.7 1.5 91 0.5 W 41 61 22 33 - - 1.4
30/08:00pm 2.8 -6.0 1.3 90 0.6 W 37 48 20 26 - - 1.4
30/07:56pm 2.8 -6.4 1.2 89 0.7 W 39 59 21 32 - - 1.4
30/07:30pm 2.8 -7.1 1.5 91 0.5 W 43 57 23 31 - - 1.4
30/07:02pm 2.9 -6.2 1.9 93 0.4 W 39 57 21 31 - - 1.4
30/07:00pm 2.9 -6.6 1.9 93 0.4 W 41 57 22 31 - - 1.4
30/06:30pm 3.1 -6.7 2.2 94 0.4 W 43 63 23 34 - - 1.4
30/06:27pm 3.1 -6.3 2.1 93 0.4 W 41 63 22 34 - - 1.4
30/06:00pm 3.2 -5.5 2.3 94 0.4 W 37 52 20 28 - - 1.4
30/05:33pm 3.3 -6.5 2.4 94 0.4 W 43 61 23 33 - - 1.4
30/05:30pm 3.3 -6.7 2.4 94 0.4 W 44 61 24 33 - - 1.4
30/05:00pm 3.6 -6.7 2.4 92 0.5 W 46 57 25 31 - - 1.4
30/04:37pm 3.6 -5.8 2.4 92 0.5 W 41 61 22 33 - - 1.4
30/04:30pm 3.7 -5.0 2.2 90 0.6 W 37 54 20 29 - - 1.4
30/04:00pm 3.5 -7.2 2.5 93 0.4 W 48 72 26 39 - - 1.4
30/03:50pm 3.5 -7.2 2.5 93 0.4 W 48 70 26 38 - - 1.4
30/03:30pm 4.0 -7.4 3.0 93 0.4 W 52 65 28 35 - - 1.4
30/03:16pm 4.4 -7.6 3.5 94 0.4 W 56 67 30 36 - - 1.4
30/03:09pm 4.5 -2.1 4.1 97 0.2 W 28 46 15 25 - - 1.4
30/03:00pm 4.0 -2.7 3.6 97 0.2 WSW 28 43 15 23 - - 1.4
30/02:30pm 4.8 -3.6 3.9 94 0.4 W 37 56 20 30 - - 1.2
30/02:11pm 4.6 -2.4 4.0 96 0.3 W 30 52 16 28 - - 1.2
30/02:00pm 4.4 -2.7 3.7 95 0.3 W 30 46 16 25 - - 1.2
30/01:30pm 4.8 -3.2 3.6 92 0.5 W 35 61 19 33 - - 1.2
30/01:11pm 5.2 -2.8 4.0 92 0.5 W 35 61 19 33 - - 1.2
30/01:00pm 4.7 -2.9 4.1 96 0.3 W 33 46 18 25 - - 1.0
30/12:30pm 4.5 -3.9 3.6 94 0.4 W 37 59 20 32 - - 0.6
30/12:10pm 5.2 -4.0 3.5 89 0.8 W 41 59 22 32 - - 0.6
30/12:00pm 4.7 -4.1 3.4 91 0.6 W 39 57 21 31 - - 0.6
30/11:31am 5.2 -5.2 4.3 94 0.4 W 48 67 26 36 - - 0.6
30/11:30am 5.0 -5.8 4.1 94 0.4 W 50 67 27 36 - - 0.6
30/11:19am 5.2 -1.7 4.8 97 0.2 W 30 50 16 27 - - 0.6
30/11:00am 4.6 -2.4 4.3 98 0.1 WSW 30 37 16 20 - - 0.6
30/10:42am 4.6 -2.4 4.3 98 0.1 W 30 52 16 28 - - 0.4
30/10:30am 4.7 -0.3 4.4 98 0.1 W 20 26 11 14 - - 0.2
30/10:00am 4.0 -3.1 3.7 98 0.1 WSW 30 43 16 23 - - 0.0
30/09:30am 3.5 -2.9 3.2 98 0.1 W 26 43 14 23 - - 0.0
30/09:00am 3.2 -5.3 2.9 98 0.1 WSW 37 54 20 29 - - 0.0
30/08:43am 3.3 -5.6 2.9 97 0.2 WSW 39 65 21 35 - - 0.0
30/08:30am 3.2 -6.1 2.9 98 0.1 W 41 52 22 28 - - 0.0
30/08:00am 3.0 -7.3 2.7 98 0.1 WSW 46 70 25 38 - - 0.0
30/07:45am 2.9 -6.8 2.6 98 0.1 WSW 43 69 23 37 - - 0.0
30/07:30am 2.8 -6.2 2.5 98 0.1 WSW 39 54 21 29 - - 0.0
30/07:01am 2.7 -7.6 2.4 98 0.1 WSW 46 67 25 36 - - 0.0
30/07:00am 2.7 -8.0 2.4 98 0.1 WSW 48 67 26 36 - - 0.0
30/06:32am 2.6 -8.5 2.3 98 0.1 WSW 50 69 27 37 - - 0.0
30/06:30am 2.6 -8.9 2.3 98 0.1 WSW 52 69 28 37 - - 0.0
30/06:08am 2.5 -7.5 2.2 98 0.1 WSW 44 65 24 35 - - 0.0
30/06:00am 2.6 -6.8 2.3 98 0.1 WSW 41 54 22 29 - - 0.0
30/05:45am 2.7 -6.7 2.4 98 0.1 W 41 61 22 33 - - 0.0
30/05:30am 2.8 -5.8 2.5 98 0.1 W 37 54 20 29 - - 0.0
30/05:00am 2.9 -7.0 2.6 98 0.1 WSW 44 57 24 31 - - 0.0
30/04:32am 2.9 -7.4 2.6 98 0.1 WSW 46 69 25 37 - - 0.0
30/04:30am 2.9 -7.0 2.6 98 0.1 W 44 59 24 32 - - 0.0
30/04:01am 3.0 -9.2 2.4 96 0.3 W 56 76 30 41 - - 0.0
30/04:00am 2.9 -9.6 2.3 96 0.3 W 57 76 31 41 - - 0.0
30/03:31am 2.9 -9.0 2.2 95 0.3 W 54 74 29 40 - - 0.0
30/03:30am 2.9 -9.4 2.0 94 0.4 W 56 74 30 40 - - 0.0
30/03:00am 3.1 -10.2 1.9 92 0.5 W 61 80 33 43 - - 0.0
30/02:30am 3.4 -10.1 0.8 83 1.1 W 61 83 33 45 - - 0.0
30/02:21am 3.1 -9.4 1.0 86 0.9 W 56 80 30 43 - - 0.0
30/02:00am 2.9 -9.7 1.1 88 0.8 W 57 72 31 39 - - 0.0
30/01:30am 2.8 -7.2 1.3 90 0.6 W 43 70 23 38 - - 0.0
30/01:02am 2.9 -6.1 2.2 95 0.3 W 39 57 21 31 - - 0.0
30/01:00am 3.0 -6.4 2.1 94 0.4 W 41 57 22 31 - - 0.0
30/12:30am 3.2 -7.2 2.2 93 0.4 W 46 67 25 36 - - 0.0
30/12:00am 3.3 -9.2 2.0 91 0.6 W 57 80 31 43 - - 0.0
 
Date/Time
EDT
Temp
°C
App
Temp
°C
Dew
Point
Rel
Hum
%
Delta-T
°C
Wind Press
QNH
hPa
Press
MSL
hPa
Rain
since 9 am
mm
Dir
 
Spd
km/h
Gust
km/h
Spd
kts
Gust
kts
29/11:30pm 3.3 -8.2 2.3 93 0.4 W 52 70 28 38 - - 0.0
29/11:04pm 3.3 -9.6 2.1 92 0.5 W 59 93 32 50 - - 0.0
29/11:00pm 3.2 -9.3 2.0 92 0.5 W 57 72 31 39 - - 0.0
29/10:30pm 3.5 -8.9 1.5 87 0.8 W 56 82 30 44 - - 0.0
29/10:00pm 3.6 -7.4 2.9 95 0.3 W 50 78 27 42 - - 0.0
29/09:30pm 4.0 -8.2 2.8 92 0.5 W 56 85 30 46 - - 0.0
29/09:00pm 4.1 -9.2 1.6 84 1.1 W 61 85 33 46 - - 0.0
29/08:42pm 3.7 -9.1 2.4 91 0.6 W 59 95 32 51 - - 0.0
29/08:33pm 3.6 -7.8 2.6 93 0.4 W 52 72 28 39 - - 0.0
29/08:30pm 3.5 -8.0 2.3 92 0.5 W 52 69 28 37 - - 0.0
29/08:00pm 3.7 -7.0 2.4 91 0.6 W 48 78 26 42 - - 0.0
29/07:30pm 4.1 -6.9 2.8 91 0.6 W 50 80 27 43 - - 0.0
29/07:00pm 4.7 -8.1 2.2 84 1.1 W 59 85 32 46 - - 0.0
29/06:30pm 4.9 -9.9 2.1 82 1.2 W 69 89 37 48 - - 0.0
29/06:00pm 5.5 -8.1 2.0 78 1.5 W 63 93 34 50 - - 0.0
29/05:30pm 5.6 -8.3 2.8 82 1.2 W 65 89 35 48 - - 0.0
29/05:00pm 6.0 -8.7 2.6 79 1.5 W 69 91 37 49 - - 0.0
29/04:30pm 6.3 -7.6 2.8 78 1.6 WNW 65 87 35 47 - - 0.0
29/04:00pm 6.0 -9.3 2.1 76 1.7 WNW 72 98 39 53 - - 0.0
29/03:30pm 5.8 -9.1 2.4 79 1.5 W 70 98 38 53 - - 0.0
29/03:00pm 6.1 -9.9 2.7 79 1.5 WNW 76 100 41 54 - - 0.0
29/02:30pm 6.2 -9.8 2.7 78 1.6 WNW 76 100 41 54 - - 0.0
29/02:00pm 5.8 -9.9 2.4 79 1.5 WNW 74 95 40 51 - - 0.0
29/01:30pm 5.1 -9.6 2.6 84 1.1 W 69 89 37 48 - - 0.0
29/01:00pm 3.9 -10.1 1.9 87 0.9 WNW 65 93 35 50 - - 0.0
29/12:30pm 3.5 -10.2 1.9 89 0.7 WNW 63 89 34 48 - - 0.0
29/12:00pm 3.4 -9.1 1.8 89 0.7 W 57 80 31 43 - - 0.0
29/11:30am 2.6 -11.1 1.9 95 0.3 W 63 83 34 45 - - 0.0
29/11:00am 2.0 -10.5 1.7 98 0.1 W 57 82 31 44 - - 0.0
29/10:39am 1.9 -10.5 1.6 98 0.1 W 56 76 30 41 - - 0.0
29/10:30am 1.6 -10.8 1.2 97 0.2 W 56 72 30 39 - - 0.0
29/10:11am 1.5 -10.2 1.1 97 0.2 W 52 76 28 41 - - 0.0
29/10:00am 1.7 -10.7 1.3 97 0.2 W 56 72 30 39 - - 0.0
29/09:30am 1.2 -11.0 0.6 96 0.2 W 54 76 29 41 - - 0.0
29/09:00am 1.6 -9.0 0.9 95 0.3 W 46 67 25 36 - - 0.2
29/08:35am 1.2 -10.9 0.8 97 0.2 W 54 74 29 40 - - 0.2
29/08:30am 1.2 -11.3 0.9 98 0.1 W 56 65 30 35 - - 0.2
29/08:00am 0.4 -11.4 0.1 98 0.1 W 52 65 28 35 - - 0.2
29/07:30am 0.0 -10.8 -0.3 98 0.1 W 46 59 25 32 - - 0.2
29/07:00am -0.3 -11.1 -0.6 98 0.1 WSW 46 56 25 30 - - 0.2
29/06:30am -0.6 -12.6 -0.9 98 0.1 WSW 52 61 28 33 - - 0.2
29/06:00am -0.8 -10.7 -1.2 97 0.1 WSW 41 61 22 33 - - 0.2
29/05:56am -1.0 -10.2 -1.4 97 0.1 WSW 37 61 20 33 - - 0.2
29/05:30am -1.1 -11.5 -1.5 97 0.1 WSW 43 57 23 31 - - 0.2
29/05:00am -1.4 -14.3 -2.1 95 0.2 WSW 56 70 30 38 - - 0.2
29/04:30am -1.7 -15.3 -2.7 93 0.3 WSW 59 78 32 42 - - 0.2
29/04:00am -1.8 -17.9 -2.9 92 0.3 WSW 72 85 39 46 - - 0.2
29/03:30am -1.6 -14.7 -2.3 95 0.2 WSW 57 70 31 38 - - 0.2
29/03:00am -1.8 -15.8 -2.9 92 0.3 WSW 61 76 33 41 - - 0.2
29/02:45am -2.0 -15.0 -3.1 92 0.3 WSW 56 76 30 41 - - 0.2
29/02:30am -2.0 -15.1 -3.3 91 0.4 WSW 56 67 30 36 - - 0.2
29/02:00am -2.5 -13.8 -4.4 87 0.5 WSW 46 63 25 34 - - 0.2
29/01:30am -3.0 -12.3 -5.2 85 0.6 WSW 35 54 19 29 - - 0.2
29/01:29am -3.2 -12.5 -5.4 85 0.6 WSW 35 54 19 29 - - 0.2
29/01:00am -2.9 -12.5 -5.1 85 0.6 SW 37 54 20 29 - - 0.2
29/12:42am -3.0 -13.8 -4.9 87 0.5 SW 43 63 23 34 - - 0.2
29/12:30am -3.3 -14.3 -5.0 88 0.4 SW 44 61 24 33 - - 0.2
29/12:08am -2.8 -14.8 -3.6 94 0.2 SW 50 69 27 37 - - 0.2
29/12:00am -2.6 -15.3 -3.3 95 0.1 WSW 54 69 29 37 - - 0.2
 
Date/Time
EDT
Temp
°C
App
Temp
°C
Dew
Point
Rel
Hum
%
Delta-T
°C
Wind Press
QNH
hPa
Press
MSL
hPa
Rain
since 9 am
mm
Dir
 
Spd
km/h
Gust
km/h
Spd
kts
Gust
kts
28/11:55pm -2.6 -14.9 -3.3 95 0.1 WSW 52 61 28 33 - - 0.2
28/11:31pm -2.8 -19.3 -3.3 96 0.0 WSW 74 93 40 50 - - 0.2
28/11:30pm -2.8 -19.7 -3.3 96 0.0 WSW 76 93 41 50 - - 0.2
28/11:00pm -2.5 -19.7 -3.0 96 0.1 WSW 78 91 42 49 - - 0.2
28/10:46pm -2.5 -20.1 -3.0 96 0.1 WSW 80 98 43 53 - - 0.2
28/10:30pm -2.6 -20.2 -3.1 96 0.1 WSW 80 95 43 51 - - 0.2
28/10:00pm -2.5 -19.3 -3.0 96 0.1 WSW 76 96 41 52 - - 0.2
28/09:38pm -2.4 -18.5 -2.9 96 0.1 WSW 72 93 39 50 - - 0.2
28/09:30pm -2.4 -18.1 -2.9 96 0.1 WSW 70 87 38 47 - - 0.2
28/09:00pm -2.3 -19.1 -2.8 96 0.1 WSW 76 93 41 50 - - 0.2
28/08:30pm -2.1 -17.5 -2.6 96 0.1 WSW 69 87 37 47 - - 0.2
28/08:13pm -2.1 -19.6 -2.6 96 0.1 WSW 80 102 43 55 - - 0.2
28/08:06pm -2.1 -20.6 -2.6 96 0.1 WSW 85 98 46 53 - - 0.2
28/08:00pm -2.1 -17.2 -2.6 96 0.1 WSW 67 93 36 50 - - 0.2
28/07:30pm -1.9 -17.5 -2.7 94 0.2 WSW 70 93 38 50 - - 0.2
28/07:00pm -1.3 -17.8 -3.5 85 0.7 WSW 74 100 40 54 - - 0.2
28/06:30pm -1.6 -17.7 -3.2 89 0.5 WSW 72 100 39 54 - - 0.2
28/06:00pm -1.8 -17.5 -3.1 91 0.4 WSW 70 93 38 50 - - 0.2
28/05:30pm -1.3 -19.0 -4.3 80 1.0 WSW 80 102 43 55 - - 0.2
28/05:00pm -1.6 -20.6 -3.6 86 0.6 WSW 87 117 47 63 - - 0.2
28/04:55pm -1.8 -18.6 -2.9 92 0.3 WSW 76 113 41 61 - - 0.2
28/04:48pm -1.2 -16.0 -3.9 82 0.9 WSW 65 83 35 45 - - 0.2
28/04:47pm -1.2 -15.3 -3.9 82 0.9 WSW 61 74 33 40 - - 0.2
28/04:30pm -1.4 -19.4 -3.6 85 0.7 WSW 82 106 44 57 - - 0.2
28/04:00pm -2.0 -17.8 -4.0 86 0.6 WSW 70 102 38 55 - - 0.2
28/03:30pm -1.6 -17.7 -3.3 88 0.5 WSW 72 93 39 50 - - 0.2
28/03:00pm -1.7 -19.0 -4.0 84 0.7 WSW 78 100 42 54 - - 0.2
28/02:40pm -1.8 -18.3 -3.5 88 0.5 WSW 74 93 40 50 - - 0.2
28/02:36pm -2.1 -18.6 -3.2 92 0.3 WSW 74 91 40 49 - - 0.2
28/02:30pm -1.4 -13.7 -3.6 85 0.7 WSW 52 89 28 48 - - 0.2
28/02:00pm -1.6 -17.2 -3.9 84 0.7 WSW 69 93 37 50 - - 0.2
28/01:30pm -1.8 -15.9 -3.7 87 0.6 WSW 61 91 33 49 - - 0.2
28/01:00pm -2.0 -15.7 -4.0 86 0.6 WSW 59 82 32 44 - - 0.2
28/12:30pm -2.4 -15.6 -3.2 94 0.2 W 57 80 31 43 - - 0.0
28/12:26pm -2.3 -15.9 -3.0 95 0.1 W 59 80 32 43 - - 0.0
28/12:23pm -2.5 -17.7 -3.5 93 0.2 W 67 80 36 43 - - 0.0
28/12:00pm -2.6 -13.8 -3.4 94 0.2 WSW 46 74 25 40 - - 0.0
28/11:30am -2.0 -12.8 -3.4 90 0.4 W 44 74 24 40 - - 0.0
28/11:00am -1.8 -12.6 -3.1 91 0.4 WSW 44 70 24 38 - - 0.0
28/10:38am -2.4 -13.5 -3.2 94 0.2 W 46 70 25 38 - - 0.0
28/10:30am -2.7 -12.9 -3.4 95 0.1 W 41 54 22 29 - - 0.0
28/10:00am -2.5 -13.2 -3.9 90 0.4 WSW 43 63 23 34 - - 0.0
28/09:30am -2.5 -13.7 -3.5 93 0.2 WSW 46 67 25 36 - - 0.0
28/09:02am -2.5 -16.1 -3.0 96 0.1 W 59 78 32 42 - - 0.0
28/09:00am -2.5 -16.9 -3.0 96 0.1 W 63 80 34 43 - - 5.4
28/08:30am -2.4 -17.6 -3.7 91 0.3 W 67 95 36 51 - - 5.4
28/08:21am -2.7 -17.9 -3.7 93 0.2 W 67 95 36 51 - - 5.2
28/08:07am -2.8 -14.7 -3.5 95 0.1 W 50 70 27 38 - - 5.2
28/08:00am -2.6 -14.9 -3.3 95 0.1 W 52 69 28 37 - - 5.2
28/07:49am -2.4 -13.1 -2.9 96 0.1 W 44 63 24 34 - - 5.2
28/07:30am -2.4 -13.5 -2.9 96 0.1 W 46 65 25 35 - - 5.2
28/07:01am -2.1 -12.2 -2.6 96 0.1 W 41 59 22 32 - - 5.0
28/07:00am -2.1 -12.6 -2.6 96 0.1 W 43 59 23 32 - - 5.0
28/06:33am -1.7 -13.6 -3.0 91 0.4 W 50 69 27 37 - - 5.0
28/06:30am -1.7 -14.0 -3.1 90 0.4 W 52 69 28 37 - - 5.0
28/06:00am -1.8 -14.1 -3.2 90 0.4 W 52 74 28 40 - - 5.0
28/05:39am -1.4 -12.4 -2.2 94 0.2 W 46 67 25 36 - - 5.0
28/05:30am -1.3 -11.9 -1.7 97 0.1 W 44 61 24 33 - - 5.0
28/05:17am -1.1 -10.7 -1.5 97 0.1 WSW 39 59 21 32 - - 5.0
28/05:00am -0.7 -11.2 -1.0 98 0.1 WSW 44 59 24 32 - - 5.0
28/04:30am -0.3 -13.2 -0.6 98 0.1 W 57 78 31 42 - - 4.8
28/04:12am -0.4 -12.7 -0.7 98 0.1 W 54 74 29 40 - - 4.6
28/04:00am -0.3 -13.2 -0.6 98 0.1 W 57 72 31 39 - - 4.6
28/03:46am -0.2 -10.4 -0.5 98 0.1 W 43 63 23 34 - - 4.2
28/03:30am -0.1 -10.9 -0.4 98 0.1 WNW 46 57 25 31 - - 4.2
28/03:00am -0.4 -11.6 -0.7 98 0.1 NW 48 61 26 33 - - 3.6
28/02:30am -0.5 -13.4 -0.8 98 0.1 NW 57 70 31 38 - - 3.4
28/02:09am -0.5 -15.9 -0.8 98 0.1 NW 70 91 38 49 - - 3.4

Other Formats:

Comma delimited format used in spreadsheet applications
http://www.bom.gov.au/fwo/IDT60801/IDT60801.95979.axf

JavaScript Object Notation format (JSON) in row-major order
http://www.bom.gov.au/fwo/IDT60801/IDT60801.95979.json